sensor_id;sensor_type;location;lat;lon;timestamp;temperature;humidity
63299;DHT22;54535;52.138;5.398;2022-10-16T00:01:24;14.00;99.90
63299;DHT22;54535;52.138;5.398;2022-10-16T00:03:51;14.00;99.90
63299;DHT22;54535;52.138;5.398;2022-10-16T00:06:19;14.00;99.90
63299;DHT22;54535;52.138;5.398;2022-10-16T00:08:46;14.00;99.90
63299;DHT22;54535;52.138;5.398;2022-10-16T00:11:14;13.90;99.90
63299;DHT22;54535;52.138;5.398;2022-10-16T00:13:41;13.90;99.90
63299;DHT22;54535;52.138;5.398;2022-10-16T00:16:09;13.90;99.90
63299;DHT22;54535;52.138;5.398;2022-10-16T00:18:36;13.90;99.90
63299;DHT22;54535;52.138;5.398;2022-10-16T00:21:07;13.90;99.90
63299;DHT22;54535;52.138;5.398;2022-10-16T00:23:34;13.90;99.90
63299;DHT22;54535;52.138;5.398;2022-10-16T00:26:03;13.90;99.90
63299;DHT22;54535;52.138;5.398;2022-10-16T00:28:31;13.90;99.90
63299;DHT22;54535;52.138;5.398;2022-10-16T00:30:58;13.90;99.90
63299;DHT22;54535;52.138;5.398;2022-10-16T00:33:25;13.90;99.90
63299;DHT22;54535;52.138;5.398;2022-10-16T00:35:51;14.00;99.90
63299;DHT22;54535;52.138;5.398;2022-10-16T00:38:18;14.00;99.90
63299;DHT22;54535;52.138;5.398;2022-10-16T00:40:45;13.90;99.90
63299;DHT22;54535;52.138;5.398;2022-10-16T00:43:12;14.00;99.90
63299;DHT22;54535;52.138;5.398;2022-10-16T00:45:39;14.00;99.90
63299;DHT22;54535;52.138;5.398;2022-10-16T00:48:07;14.00;99.90
63299;DHT22;54535;52.138;5.398;2022-10-16T00:50:37;14.00;99.90
63299;DHT22;54535;52.138;5.398;2022-10-16T00:53:04;14.00;99.90
63299;DHT22;54535;52.138;5.398;2022-10-16T00:55:30;14.10;99.90
63299;DHT22;54535;52.138;5.398;2022-10-16T00:57:57;14.10;99.90
63299;DHT22;54535;52.138;5.398;2022-10-16T01:00:25;14.10;99.90
63299;DHT22;54535;52.138;5.398;2022-10-16T01:02:56;14.00;99.90
63299;DHT22;54535;52.138;5.398;2022-10-16T01:05:24;14.00;99.90
63299;DHT22;54535;52.138;5.398;2022-10-16T01:08:03;14.10;99.90
63299;DHT22;54535;52.138;5.398;2022-10-16T01:10:38;14.10;99.90
63299;DHT22;54535;52.138;5.398;2022-10-16T01:13:07;14.10;99.90
63299;DHT22;54535;52.138;5.398;2022-10-16T01:15:37;14.20;99.90
63299;DHT22;54535;52.138;5.398;2022-10-16T01:18:06;14.20;99.90
63299;DHT22;54535;52.138;5.398;2022-10-16T01:27:57;14.20;99.90
63299;DHT22;54535;52.138;5.398;2022-10-16T01:30:26;14.20;99.90
63299;DHT22;54535;52.138;5.398;2022-10-16T01:32:57;14.30;99.90
63299;DHT22;54535;52.138;5.398;2022-10-16T01:35:45;14.30;99.90
63299;DHT22;54535;52.138;5.398;2022-10-16T01:38:21;14.30;99.90
63299;DHT22;54535;52.138;5.398;2022-10-16T01:40:53;14.30;99.90
63299;DHT22;54535;52.138;5.398;2022-10-16T01:43:25;14.30;99.90
63299;DHT22;54535;52.138;5.398;2022-10-16T01:45:53;14.30;99.90
63299;DHT22;54535;52.138;5.398;2022-10-16T01:48:20;14.20;99.90
63299;DHT22;54535;52.138;5.398;2022-10-16T01:50:52;14.20;99.90
63299;DHT22;54535;52.138;5.398;2022-10-16T01:53:20;14.20;99.90
63299;DHT22;54535;52.138;5.398;2022-10-16T01:55:47;14.30;99.90
63299;DHT22;54535;52.138;5.398;2022-10-16T01:58:15;14.30;99.90
63299;DHT22;54535;52.138;5.398;2022-10-16T02:00:44;14.30;99.90
63299;DHT22;54535;52.138;5.398;2022-10-16T02:03:12;14.30;99.90
63299;DHT22;54535;52.138;5.398;2022-10-16T02:05:47;14.30;99.90
63299;DHT22;54535;52.138;5.398;2022-10-16T02:08:15;14.30;99.90
63299;DHT22;54535;52.138;5.398;2022-10-16T02:10:42;14.30;99.90
63299;DHT22;54535;52.138;5.398;2022-10-16T02:13:13;14.30;99.90
63299;DHT22;54535;52.138;5.398;2022-10-16T02:15:41;14.30;99.90
63299;DHT22;54535;52.138;5.398;2022-10-16T02:18:07;14.30;99.90
63299;DHT22;54535;52.138;5.398;2022-10-16T02:20:57;14.20;99.90
63299;DHT22;54535;52.138;5.398;2022-10-16T02:24:09;14.20;99.90
63299;DHT22;54535;52.138;5.398;2022-10-16T02:26:10;14.20;99.90
63299;DHT22;54535;52.138;5.398;2022-10-16T02:28:40;14.20;99.90
63299;DHT22;54535;52.138;5.398;2022-10-16T02:31:09;14.20;99.90
63299;DHT22;54535;52.138;5.398;2022-10-16T02:33:38;14.10;99.90
63299;DHT22;54535;52.138;5.398;2022-10-16T02:36:05;14.10;99.90
63299;DHT22;54535;52.138;5.398;2022-10-16T02:38:32;14.20;99.90
63299;DHT22;54535;52.138;5.398;2022-10-16T02:40:59;14.10;99.90
63299;DHT22;54535;52.138;5.398;2022-10-16T02:43:26;14.10;99.90
63299;DHT22;54535;52.138;5.398;2022-10-16T02:45:53;14.10;99.90
63299;DHT22;54535;52.138;5.398;2022-10-16T02:48:19;14.00;99.90
63299;DHT22;54535;52.138;5.398;2022-10-16T02:50:46;14.10;99.90
63299;DHT22;54535;52.138;5.398;2022-10-16T02:53:12;14.00;99.90
63299;DHT22;54535;52.138;5.398;2022-10-16T02:55:39;14.00;99.90
63299;DHT22;54535;52.138;5.398;2022-10-16T02:58:06;14.00;99.90
63299;DHT22;54535;52.138;5.398;2022-10-16T03:00:32;14.10;99.90
63299;DHT22;54535;52.138;5.398;2022-10-16T03:02:59;14.10;99.90
63299;DHT22;54535;52.138;5.398;2022-10-16T03:05:26;14.00;99.90
63299;DHT22;54535;52.138;5.398;2022-10-16T03:07:52;14.00;99.90
63299;DHT22;54535;52.138;5.398;2022-10-16T03:10:19;14.10;99.90
63299;DHT22;54535;52.138;5.398;2022-10-16T03:12:46;14.10;99.90
63299;DHT22;54535;52.138;5.398;2022-10-16T03:15:12;14.10;99.90
63299;DHT22;54535;52.138;5.398;2022-10-16T03:17:39;14.10;99.90
63299;DHT22;54535;52.138;5.398;2022-10-16T03:20:06;14.10;99.90
63299;DHT22;54535;52.138;5.398;2022-10-16T03:22:32;14.10;99.90
63299;DHT22;54535;52.138;5.398;2022-10-16T03:24:59;14.00;99.90
63299;DHT22;54535;52.138;5.398;2022-10-16T03:27:26;14.00;99.90
63299;DHT22;54535;52.138;5.398;2022-10-16T03:29:53;14.00;99.90
63299;DHT22;54535;52.138;5.398;2022-10-16T03:32:19;14.00;99.90
63299;DHT22;54535;52.138;5.398;2022-10-16T03:34:46;14.00;99.90
63299;DHT22;54535;52.138;5.398;2022-10-16T03:37:13;14.00;99.90
63299;DHT22;54535;52.138;5.398;2022-10-16T03:39:39;14.00;99.90
63299;DHT22;54535;52.138;5.398;2022-10-16T03:42:06;14.00;99.90
63299;DHT22;54535;52.138;5.398;2022-10-16T03:44:33;14.00;99.90
63299;DHT22;54535;52.138;5.398;2022-10-16T03:47:00;13.90;99.90
63299;DHT22;54535;52.138;5.398;2022-10-16T03:49:26;14.00;99.90
63299;DHT22;54535;52.138;5.398;2022-10-16T03:51:53;13.90;99.90
63299;DHT22;54535;52.138;5.398;2022-10-16T03:54:19;13.90;99.90
63299;DHT22;54535;52.138;5.398;2022-10-16T03:56:46;13.90;99.90
63299;DHT22;54535;52.138;5.398;2022-10-16T03:59:13;13.90;99.90
63299;DHT22;54535;52.138;5.398;2022-10-16T04:01:39;13.90;99.90
63299;DHT22;54535;52.138;5.398;2022-10-16T04:04:06;13.90;99.90
63299;DHT22;54535;52.138;5.398;2022-10-16T04:06:33;13.80;99.90
63299;DHT22;54535;52.138;5.398;2022-10-16T04:08:59;13.80;99.90
63299;DHT22;54535;52.138;5.398;2022-10-16T04:11:26;13.80;99.90
63299;DHT22;54535;52.138;5.398;2022-10-16T04:13:52;13.80;99.90
63299;DHT22;54535;52.138;5.398;2022-10-16T04:16:19;13.80;99.90
63299;DHT22;54535;52.138;5.398;2022-10-16T04:18:46;13.80;99.90
63299;DHT22;54535;52.138;5.398;2022-10-16T04:21:12;13.80;99.90
63299;DHT22;54535;52.138;5.398;2022-10-16T04:23:39;13.80;99.90
63299;DHT22;54535;52.138;5.398;2022-10-16T04:26:06;13.80;99.90
63299;DHT22;54535;52.138;5.398;2022-10-16T04:28:32;13.80;99.90
63299;DHT22;54535;52.138;5.398;2022-10-16T04:30:59;13.80;99.90
63299;DHT22;54535;52.138;5.398;2022-10-16T04:33:26;13.80;99.90
63299;DHT22;54535;52.138;5.398;2022-10-16T04:35:56;13.80;99.90
63299;DHT22;54535;52.138;5.398;2022-10-16T04:38:22;13.80;99.90
63299;DHT22;54535;52.138;5.398;2022-10-16T04:40:49;13.80;99.90
63299;DHT22;54535;52.138;5.398;2022-10-16T04:43:16;13.70;99.90
63299;DHT22;54535;52.138;5.398;2022-10-16T04:45:42;13.70;99.90
63299;DHT22;54535;52.138;5.398;2022-10-16T04:48:09;13.70;99.90
63299;DHT22;54535;52.138;5.398;2022-10-16T04:50:36;13.70;99.90
63299;DHT22;54535;52.138;5.398;2022-10-16T04:53:05;13.70;99.90
63299;DHT22;54535;52.138;5.398;2022-10-16T04:55:32;13.70;99.90
63299;DHT22;54535;52.138;5.398;2022-10-16T04:57:59;13.70;99.90
63299;DHT22;54535;52.138;5.398;2022-10-16T05:00:26;13.70;99.90
63299;DHT22;54535;52.138;5.398;2022-10-16T05:02:52;13.70;99.90
63299;DHT22;54535;52.138;5.398;2022-10-16T05:05:19;13.70;99.90
63299;DHT22;54535;52.138;5.398;2022-10-16T05:07:46;13.70;99.90
63299;DHT22;54535;52.138;5.398;2022-10-16T05:10:13;13.70;99.90
63299;DHT22;54535;52.138;5.398;2022-10-16T05:12:39;13.70;99.90
63299;DHT22;54535;52.138;5.398;2022-10-16T05:15:06;13.60;99.90
63299;DHT22;54535;52.138;5.398;2022-10-16T05:17:33;13.70;99.90
63299;DHT22;54535;52.138;5.398;2022-10-16T05:20:00;13.60;99.90
63299;DHT22;54535;52.138;5.398;2022-10-16T05:22:26;13.70;99.90
63299;DHT22;54535;52.138;5.398;2022-10-16T05:24:53;13.60;99.90
63299;DHT22;54535;52.138;5.398;2022-10-16T05:27:19;13.60;99.90
63299;DHT22;54535;52.138;5.398;2022-10-16T05:29:47;13.50;99.90
63299;DHT22;54535;52.138;5.398;2022-10-16T05:32:14;13.50;99.90
63299;DHT22;54535;52.138;5.398;2022-10-16T05:34:41;13.40;99.90
63299;DHT22;54535;52.138;5.398;2022-10-16T05:37:08;13.50;99.90
63299;DHT22;54535;52.138;5.398;2022-10-16T05:39:35;13.50;99.90
63299;DHT22;54535;52.138;5.398;2022-10-16T05:42:03;13.50;99.90
63299;DHT22;54535;52.138;5.398;2022-10-16T05:44:30;13.50;99.90
63299;DHT22;54535;52.138;5.398;2022-10-16T05:46:57;13.50;99.90
63299;DHT22;54535;52.138;5.398;2022-10-16T05:49:23;13.50;99.90
63299;DHT22;54535;52.138;5.398;2022-10-16T05:51:50;13.40;99.90
63299;DHT22;54535;52.138;5.398;2022-10-16T05:54:17;13.40;99.90
63299;DHT22;54535;52.138;5.398;2022-10-16T05:56:43;13.50;99.90
63299;DHT22;54535;52.138;5.398;2022-10-16T05:59:10;13.40;99.90
63299;DHT22;54535;52.138;5.398;2022-10-16T06:01:36;13.50;99.90
63299;DHT22;54535;52.138;5.398;2022-10-16T06:04:03;13.50;99.90
63299;DHT22;54535;52.138;5.398;2022-10-16T06:06:30;13.50;99.90
63299;DHT22;54535;52.138;5.398;2022-10-16T06:08:57;13.60;99.90
63299;DHT22;54535;52.138;5.398;2022-10-16T06:11:25;13.60;99.90
63299;DHT22;54535;52.138;5.398;2022-10-16T06:13:53;13.60;99.90
63299;DHT22;54535;52.138;5.398;2022-10-16T06:16:20;13.60;99.90
63299;DHT22;54535;52.138;5.398;2022-10-16T06:18:46;13.60;99.90
63299;DHT22;54535;52.138;5.398;2022-10-16T06:21:14;13.60;99.90
63299;DHT22;54535;52.138;5.398;2022-10-16T06:23:42;13.60;99.90
63299;DHT22;54535;52.138;5.398;2022-10-16T06:26:10;13.60;99.90
63299;DHT22;54535;52.138;5.398;2022-10-16T06:28:37;13.60;99.90
63299;DHT22;54535;52.138;5.398;2022-10-16T06:31:05;13.60;99.90
63299;DHT22;54535;52.138;5.398;2022-10-16T06:33:34;13.60;99.90
63299;DHT22;54535;52.138;5.398;2022-10-16T06:36:02;13.70;99.90
63299;DHT22;54535;52.138;5.398;2022-10-16T06:38:29;13.70;99.90
63299;DHT22;54535;52.138;5.398;2022-10-16T06:40:56;13.70;99.90
63299;DHT22;54535;52.138;5.398;2022-10-16T06:43:23;13.70;99.90
63299;DHT22;54535;52.138;5.398;2022-10-16T06:45:50;13.70;99.90
63299;DHT22;54535;52.138;5.398;2022-10-16T06:48:17;13.70;99.90
63299;DHT22;54535;52.138;5.398;2022-10-16T06:50:44;13.80;99.90
63299;DHT22;54535;52.138;5.398;2022-10-16T06:53:10;13.70;99.90
63299;DHT22;54535;52.138;5.398;2022-10-16T06:55:37;13.70;99.90
63299;DHT22;54535;52.138;5.398;2022-10-16T06:58:03;13.70;99.90
63299;DHT22;54535;52.138;5.398;2022-10-16T07:00:30;13.70;99.90
63299;DHT22;54535;52.138;5.398;2022-10-16T07:02:57;13.70;99.90
63299;DHT22;54535;52.138;5.398;2022-10-16T07:05:23;13.70;99.90
63299;DHT22;54535;52.138;5.398;2022-10-16T07:07:50;13.70;99.90
63299;DHT22;54535;52.138;5.398;2022-10-16T07:10:17;13.70;99.90
63299;DHT22;54535;52.138;5.398;2022-10-16T07:12:44;13.70;99.90
63299;DHT22;54535;52.138;5.398;2022-10-16T07:15:11;13.70;99.90
63299;DHT22;54535;52.138;5.398;2022-10-16T07:17:39;13.70;99.90
63299;DHT22;54535;52.138;5.398;2022-10-16T07:20:06;13.80;99.90
63299;DHT22;54535;52.138;5.398;2022-10-16T07:22:33;13.80;99.90
63299;DHT22;54535;52.138;5.398;2022-10-16T07:25:00;13.80;99.90
63299;DHT22;54535;52.138;5.398;2022-10-16T07:27:27;13.90;99.90
63299;DHT22;54535;52.138;5.398;2022-10-16T07:29:55;13.90;99.90
63299;DHT22;54535;52.138;5.398;2022-10-16T07:32:22;13.90;99.90
63299;DHT22;54535;52.138;5.398;2022-10-16T07:34:50;14.00;99.90
63299;DHT22;54535;52.138;5.398;2022-10-16T07:37:16;14.00;99.90
63299;DHT22;54535;52.138;5.398;2022-10-16T07:39:43;14.00;99.90
63299;DHT22;54535;52.138;5.398;2022-10-16T07:42:09;14.00;99.90
63299;DHT22;54535;52.138;5.398;2022-10-16T07:44:36;14.00;99.90
63299;DHT22;54535;52.138;5.398;2022-10-16T07:47:03;14.00;99.90
63299;DHT22;54535;52.138;5.398;2022-10-16T07:49:29;14.00;99.90
63299;DHT22;54535;52.138;5.398;2022-10-16T07:51:56;14.00;99.90
63299;DHT22;54535;52.138;5.398;2022-10-16T07:54:23;14.00;99.90
63299;DHT22;54535;52.138;5.398;2022-10-16T07:56:49;13.90;99.90
63299;DHT22;54535;52.138;5.398;2022-10-16T07:59:16;14.00;99.90
63299;DHT22;54535;52.138;5.398;2022-10-16T08:01:43;14.00;99.90
63299;DHT22;54535;52.138;5.398;2022-10-16T08:04:10;14.00;99.90
63299;DHT22;54535;52.138;5.398;2022-10-16T08:06:37;14.10;99.90
63299;DHT22;54535;52.138;5.398;2022-10-16T08:09:04;14.20;99.90
63299;DHT22;54535;52.138;5.398;2022-10-16T08:11:31;14.20;99.90
63299;DHT22;54535;52.138;5.398;2022-10-16T08:13:58;14.30;99.90
63299;DHT22;54535;52.138;5.398;2022-10-16T08:16:25;14.40;99.90
63299;DHT22;54535;52.138;5.398;2022-10-16T08:18:51;14.40;99.90
63299;DHT22;54535;52.138;5.398;2022-10-16T08:21:20;14.40;99.90
63299;DHT22;54535;52.138;5.398;2022-10-16T08:23:47;14.50;99.90
63299;DHT22;54535;52.138;5.398;2022-10-16T08:26:22;14.60;99.90
63299;DHT22;54535;52.138;5.398;2022-10-16T08:28:49;14.70;99.90
63299;DHT22;54535;52.138;5.398;2022-10-16T08:31:17;14.70;99.90
63299;DHT22;54535;52.138;5.398;2022-10-16T08:33:44;14.80;99.90
63299;DHT22;54535;52.138;5.398;2022-10-16T08:36:13;14.90;99.90
63299;DHT22;54535;52.138;5.398;2022-10-16T08:38:40;14.90;99.90
63299;DHT22;54535;52.138;5.398;2022-10-16T08:48:52;15.00;99.90
63299;DHT22;54535;52.138;5.398;2022-10-16T08:53:56;15.00;99.90
63299;DHT22;54535;52.138;5.398;2022-10-16T08:56:24;15.10;99.90
63299;DHT22;54535;52.138;5.398;2022-10-16T08:58:51;15.20;99.90
63299;DHT22;54535;52.138;5.398;2022-10-16T09:01:24;15.30;99.90
63299;DHT22;54535;52.138;5.398;2022-10-16T09:04:00;15.30;99.90
63299;DHT22;54535;52.138;5.398;2022-10-16T09:14:10;15.50;99.90
63299;DHT22;54535;52.138;5.398;2022-10-16T09:16:44;15.40;99.90
63299;DHT22;54535;52.138;5.398;2022-10-16T09:21:45;15.60;99.90
63299;DHT22;54535;52.138;5.398;2022-10-16T09:24:15;15.60;99.90
63299;DHT22;54535;52.138;5.398;2022-10-16T09:26:43;15.70;99.90
63299;DHT22;54535;52.138;5.398;2022-10-16T09:29:13;15.80;99.90
63299;DHT22;54535;52.138;5.398;2022-10-16T09:31:40;15.80;99.90
63299;DHT22;54535;52.138;5.398;2022-10-16T09:36:53;16.00;99.90
63299;DHT22;54535;52.138;5.398;2022-10-16T09:39:20;16.00;99.90
63299;DHT22;54535;52.138;5.398;2022-10-16T09:41:46;16.10;99.90
63299;DHT22;54535;52.138;5.398;2022-10-16T09:44:24;16.30;99.90
63299;DHT22;54535;52.138;5.398;2022-10-16T09:47:05;16.30;99.90
63299;DHT22;54535;52.138;5.398;2022-10-16T09:49:32;16.40;99.90
63299;DHT22;54535;52.138;5.398;2022-10-16T09:52:10;16.50;99.40
63299;DHT22;54535;52.138;5.398;2022-10-16T09:54:37;16.60;99.80
63299;DHT22;54535;52.138;5.398;2022-10-16T09:57:15;16.60;98.90
63299;DHT22;54535;52.138;5.398;2022-10-16T09:59:48;16.60;98.10
63299;DHT22;54535;52.138;5.398;2022-10-16T10:02:16;16.70;98.80
63299;DHT22;54535;52.138;5.398;2022-10-16T10:04:50;16.80;98.30
63299;DHT22;54535;52.138;5.398;2022-10-16T10:07:18;16.80;98.60
63299;DHT22;54535;52.138;5.398;2022-10-16T10:09:46;16.90;97.70
63299;DHT22;54535;52.138;5.398;2022-10-16T10:12:26;16.90;97.70
63299;DHT22;54535;52.138;5.398;2022-10-16T10:15:04;16.90;97.90
63299;DHT22;54535;52.138;5.398;2022-10-16T10:17:32;17.00;97.90
63299;DHT22;54535;52.138;5.398;2022-10-16T10:20:00;17.00;98.10
63299;DHT22;54535;52.138;5.398;2022-10-16T10:27:22;17.30;98.00
63299;DHT22;54535;52.138;5.398;2022-10-16T10:29:54;17.30;96.90
63299;DHT22;54535;52.138;5.398;2022-10-16T10:32:27;17.40;96.90
63299;DHT22;54535;52.138;5.398;2022-10-16T10:35:14;17.30;95.50
63299;DHT22;54535;52.138;5.398;2022-10-16T10:38:00;17.30;95.90
63299;DHT22;54535;52.138;5.398;2022-10-16T10:40:37;17.40;96.10
63299;DHT22;54535;52.138;5.398;2022-10-16T10:45:44;17.60;95.50
63299;DHT22;54535;52.138;5.398;2022-10-16T10:48:16;17.60;96.00
63299;DHT22;54535;52.138;5.398;2022-10-16T10:51:05;17.60;95.80
63299;DHT22;54535;52.138;5.398;2022-10-16T10:56:20;17.70;95.40
63299;DHT22;54535;52.138;5.398;2022-10-16T10:59:02;17.90;95.40
63299;DHT22;54535;52.138;5.398;2022-10-16T11:06:41;17.90;93.20
63299;DHT22;54535;52.138;5.398;2022-10-16T11:09:18;17.90;93.20
63299;DHT22;54535;52.138;5.398;2022-10-16T11:11:52;18.00;93.70
63299;DHT22;54535;52.138;5.398;2022-10-16T11:14:20;18.00;93.10
63299;DHT22;54535;52.138;5.398;2022-10-16T11:16:52;18.10;93.20
63299;DHT22;54535;52.138;5.398;2022-10-16T11:27:08;18.00;93.60
63299;DHT22;54535;52.138;5.398;2022-10-16T11:29:35;18.10;93.80
63299;DHT22;54535;52.138;5.398;2022-10-16T11:32:14;18.10;92.70
63299;DHT22;54535;52.138;5.398;2022-10-16T11:34:44;18.20;92.00
63299;DHT22;54535;52.138;5.398;2022-10-16T11:37:14;18.40;92.50
63299;DHT22;54535;52.138;5.398;2022-10-16T11:39:43;18.50;91.60
63299;DHT22;54535;52.138;5.398;2022-10-16T11:42:11;18.30;90.50
63299;DHT22;54535;52.138;5.398;2022-10-16T11:44:57;18.20;90.60
63299;DHT22;54535;52.138;5.398;2022-10-16T11:47:37;18.10;90.70
63299;DHT22;54535;52.138;5.398;2022-10-16T11:50:42;18.10;91.40
63299;DHT22;54535;52.138;5.398;2022-10-16T11:53:16;18.30;92.00
63299;DHT22;54535;52.138;5.398;2022-10-16T11:55:48;18.40;90.20
63299;DHT22;54535;52.138;5.398;2022-10-16T11:58:20;18.50;89.40
63299;DHT22;54535;52.138;5.398;2022-10-16T12:00:55;18.60;87.60
63299;DHT22;54535;52.138;5.398;2022-10-16T12:03:40;18.60;86.90
63299;DHT22;54535;52.138;5.398;2022-10-16T12:06:13;18.70;89.40
63299;DHT22;54535;52.138;5.398;2022-10-16T12:08:41;18.90;88.80
63299;DHT22;54535;52.138;5.398;2022-10-16T12:11:20;19.10;88.00
63299;DHT22;54535;52.138;5.398;2022-10-16T12:13:48;19.20;86.00
63299;DHT22;54535;52.138;5.398;2022-10-16T12:18:43;19.40;83.10
63299;DHT22;54535;52.138;5.398;2022-10-16T12:21:11;19.40;82.80
63299;DHT22;54535;52.138;5.398;2022-10-16T12:23:50;19.60;83.30
63299;DHT22;54535;52.138;5.398;2022-10-16T12:26:26;19.90;83.20
63299;DHT22;54535;52.138;5.398;2022-10-16T12:28:54;20.00;82.30
63299;DHT22;54535;52.138;5.398;2022-10-16T12:31:21;20.10;82.20
63299;DHT22;54535;52.138;5.398;2022-10-16T12:34:14;20.70;89.10
63299;DHT22;54535;52.138;5.398;2022-10-16T12:36:39;21.70;83.00
63299;DHT22;54535;52.138;5.398;2022-10-16T12:39:05;22.50;79.80
63299;DHT22;54535;52.138;5.398;2022-10-16T12:41:33;22.60;79.90
63299;DHT22;54535;52.138;5.398;2022-10-16T12:44:01;22.80;77.30
63299;DHT22;54535;52.138;5.398;2022-10-16T12:51:40;24.40;67.60
63299;DHT22;54535;52.138;5.398;2022-10-16T12:56:48;24.20;60.90
63299;DHT22;54535;52.138;5.398;2022-10-16T13:01:52;23.50;64.60
63299;DHT22;54535;52.138;5.398;2022-10-16T13:09:18;22.80;64.10
63299;DHT22;54535;52.138;5.398;2022-10-16T13:19:50;21.30;69.10
63299;DHT22;54535;52.138;5.398;2022-10-16T13:22:31;21.20;68.80
63299;DHT22;54535;52.138;5.398;2022-10-16T13:27:48;21.10;70.30
63299;DHT22;54535;52.138;5.398;2022-10-16T13:30:19;21.00;71.70
63299;DHT22;54535;52.138;5.398;2022-10-16T13:32:47;21.00;72.60
63299;DHT22;54535;52.138;5.398;2022-10-16T13:35:25;21.00;73.30
63299;DHT22;54535;52.138;5.398;2022-10-16T13:38:02;21.00;74.30
63299;DHT22;54535;52.138;5.398;2022-10-16T13:40:29;20.90;73.10
63299;DHT22;54535;52.138;5.398;2022-10-16T13:42:56;20.80;73.10
63299;DHT22;54535;52.138;5.398;2022-10-16T13:45:26;20.80;72.00
63299;DHT22;54535;52.138;5.398;2022-10-16T13:48:06;20.80;74.80
63299;DHT22;54535;52.138;5.398;2022-10-16T13:50:35;20.70;74.10
63299;DHT22;54535;52.138;5.398;2022-10-16T13:53:20;20.70;74.10
63299;DHT22;54535;52.138;5.398;2022-10-16T13:55:47;20.60;75.20
63299;DHT22;54535;52.138;5.398;2022-10-16T13:58:14;20.50;75.20
63299;DHT22;54535;52.138;5.398;2022-10-16T14:00:42;20.30;75.80
63299;DHT22;54535;52.138;5.398;2022-10-16T14:03:19;20.20;77.20
63299;DHT22;54535;52.138;5.398;2022-10-16T14:05:47;20.20;77.80
63299;DHT22;54535;52.138;5.398;2022-10-16T14:08:15;20.10;78.30
63299;DHT22;54535;52.138;5.398;2022-10-16T14:10:42;20.00;79.50
63299;DHT22;54535;52.138;5.398;2022-10-16T14:13:12;20.10;78.80
63299;DHT22;54535;52.138;5.398;2022-10-16T14:15:45;20.10;79.30
63299;DHT22;54535;52.138;5.398;2022-10-16T14:18:20;20.10;78.10
63299;DHT22;54535;52.138;5.398;2022-10-16T14:20:47;20.00;80.10
63299;DHT22;54535;52.138;5.398;2022-10-16T14:23:30;19.90;78.70
63299;DHT22;54535;52.138;5.398;2022-10-16T14:28:36;19.90;80.10
63299;DHT22;54535;52.138;5.398;2022-10-16T14:31:19;19.80;79.60
63299;DHT22;54535;52.138;5.398;2022-10-16T14:33:48;19.70;79.70
63299;DHT22;54535;52.138;5.398;2022-10-16T14:36:15;19.60;80.60
63299;DHT22;54535;52.138;5.398;2022-10-16T14:38:57;19.70;80.80
63299;DHT22;54535;52.138;5.398;2022-10-16T14:41:25;19.60;80.80
63299;DHT22;54535;52.138;5.398;2022-10-16T14:43:53;19.60;81.30
63299;DHT22;54535;52.138;5.398;2022-10-16T14:46:21;19.60;81.50
63299;DHT22;54535;52.138;5.398;2022-10-16T14:48:53;19.70;82.10
63299;DHT22;54535;52.138;5.398;2022-10-16T14:51:21;19.70;81.70
63299;DHT22;54535;52.138;5.398;2022-10-16T14:53:49;19.70;81.30
63299;DHT22;54535;52.138;5.398;2022-10-16T14:56:19;19.70;81.20
63299;DHT22;54535;52.138;5.398;2022-10-16T14:58:47;19.70;80.60
63299;DHT22;54535;52.138;5.398;2022-10-16T15:01:14;19.80;81.00
63299;DHT22;54535;52.138;5.398;2022-10-16T15:03:40;19.70;81.60
63299;DHT22;54535;52.138;5.398;2022-10-16T15:06:10;19.80;82.40
63299;DHT22;54535;52.138;5.398;2022-10-16T15:08:38;19.80;82.00
63299;DHT22;54535;52.138;5.398;2022-10-16T15:11:07;19.80;81.90
63299;DHT22;54535;52.138;5.398;2022-10-16T15:13:36;19.80;82.60
63299;DHT22;54535;52.138;5.398;2022-10-16T15:16:03;19.80;82.50
63299;DHT22;54535;52.138;5.398;2022-10-16T15:18:29;19.80;82.40
63299;DHT22;54535;52.138;5.398;2022-10-16T15:20:56;19.80;82.90
63299;DHT22;54535;52.138;5.398;2022-10-16T15:23:23;19.80;83.50
63299;DHT22;54535;52.138;5.398;2022-10-16T15:25:50;19.80;84.20
63299;DHT22;54535;52.138;5.398;2022-10-16T15:28:17;19.80;84.30
63299;DHT22;54535;52.138;5.398;2022-10-16T15:30:44;19.90;84.60
63299;DHT22;54535;52.138;5.398;2022-10-16T15:33:15;19.80;85.50
63299;DHT22;54535;52.138;5.398;2022-10-16T15:35:42;19.80;86.40
63299;DHT22;54535;52.138;5.398;2022-10-16T15:38:11;19.80;87.10
63299;DHT22;54535;52.138;5.398;2022-10-16T15:40:38;19.80;87.60
63299;DHT22;54535;52.138;5.398;2022-10-16T15:43:05;19.80;88.10
63299;DHT22;54535;52.138;5.398;2022-10-16T15:45:32;19.70;88.30
63299;DHT22;54535;52.138;5.398;2022-10-16T15:47:58;19.60;88.70
63299;DHT22;54535;52.138;5.398;2022-10-16T15:50:25;19.60;89.00
63299;DHT22;54535;52.138;5.398;2022-10-16T15:52:52;19.60;89.40
63299;DHT22;54535;52.138;5.398;2022-10-16T15:55:19;19.50;89.70
63299;DHT22;54535;52.138;5.398;2022-10-16T15:57:45;19.50;90.00
63299;DHT22;54535;52.138;5.398;2022-10-16T16:00:13;19.40;90.10
63299;DHT22;54535;52.138;5.398;2022-10-16T16:02:40;19.40;90.30
63299;DHT22;54535;52.138;5.398;2022-10-16T16:05:07;19.30;90.40
63299;DHT22;54535;52.138;5.398;2022-10-16T16:07:35;19.20;90.60
63299;DHT22;54535;52.138;5.398;2022-10-16T16:10:03;19.20;90.80
63299;DHT22;54535;52.138;5.398;2022-10-16T16:12:30;19.20;91.00
63299;DHT22;54535;52.138;5.398;2022-10-16T16:14:56;19.10;91.10
63299;DHT22;54535;52.138;5.398;2022-10-16T16:17:29;19.00;91.20
63299;DHT22;54535;52.138;5.398;2022-10-16T16:19:56;19.00;91.30
63299;DHT22;54535;52.138;5.398;2022-10-16T16:22:23;18.90;91.50
63299;DHT22;54535;52.138;5.398;2022-10-16T16:24:50;18.80;91.70
63299;DHT22;54535;52.138;5.398;2022-10-16T16:27:16;18.80;91.80
63299;DHT22;54535;52.138;5.398;2022-10-16T16:29:43;18.80;92.00
63299;DHT22;54535;52.138;5.398;2022-10-16T16:32:10;18.70;92.20
63299;DHT22;54535;52.138;5.398;2022-10-16T16:34:36;18.60;92.30
63299;DHT22;54535;52.138;5.398;2022-10-16T16:37:03;18.60;92.40
63299;DHT22;54535;52.138;5.398;2022-10-16T16:39:30;18.60;92.60
63299;DHT22;54535;52.138;5.398;2022-10-16T16:41:57;18.50;92.60
63299;DHT22;54535;52.138;5.398;2022-10-16T16:44:24;18.50;92.70
63299;DHT22;54535;52.138;5.398;2022-10-16T16:46:51;18.40;92.80
63299;DHT22;54535;52.138;5.398;2022-10-16T16:49:18;18.40;92.90
63299;DHT22;54535;52.138;5.398;2022-10-16T16:51:44;18.30;92.90
63299;DHT22;54535;52.138;5.398;2022-10-16T16:54:11;18.30;93.10
63299;DHT22;54535;52.138;5.398;2022-10-16T16:56:39;18.20;93.10
63299;DHT22;54535;52.138;5.398;2022-10-16T16:59:13;18.20;93.20
63299;DHT22;54535;52.138;5.398;2022-10-16T17:01:41;18.10;93.30
63299;DHT22;54535;52.138;5.398;2022-10-16T17:04:08;18.10;93.30
63299;DHT22;54535;52.138;5.398;2022-10-16T17:06:34;18.10;93.40